createdAt,value
2022-08-19T00:01:53.519Z,101724.31
2022-08-19T00:04:24.585Z,101777.94
2022-08-19T00:06:52.029Z,101761.09
2022-08-19T00:09:21.160Z,101802.22
2022-08-19T00:11:47.868Z,101786.13
2022-08-19T00:14:17.276Z,101784.97
2022-08-19T00:16:46.274Z,101767.31
2022-08-19T00:19:13.006Z,101774.56
2022-08-19T00:21:39.522Z,101789.66
2022-08-19T00:24:10.573Z,101789.44
2022-08-19T00:26:38.016Z,101814.56
2022-08-19T00:29:06.506Z,101822.22
2022-08-19T00:31:33.059Z,101820.25
2022-08-19T00:33:59.571Z,101843.44
2022-08-19T00:36:26.219Z,101794.66
2022-08-19T00:38:52.973Z,101852.03
2022-08-19T00:41:21.506Z,101860.00
2022-08-19T00:44:17.577Z,101883.69
2022-08-19T00:46:55.656Z,101894.13
2022-08-19T00:49:36.120Z,101900.34
2022-08-19T00:52:13.345Z,101919.41
2022-08-19T00:54:40.485Z,101940.28
2022-08-19T00:57:10.314Z,101942.84
2022-08-19T00:59:56.298Z,101947.66
2022-08-19T01:02:27.845Z,101901.41
2022-08-19T01:04:54.777Z,101946.59
2022-08-19T01:07:21.283Z,101953.69
2022-08-19T01:09:47.844Z,101936.97
2022-08-19T01:12:15.144Z,101877.59
2022-08-19T01:14:41.876Z,101898.66
2022-08-19T01:17:12.453Z,101914.66
2022-08-19T01:19:43.729Z,101859.22
2022-08-19T01:22:28.732Z,101845.19
2022-08-19T01:24:55.424Z,101900.28
2022-08-19T01:27:23.339Z,101923.88
2022-08-19T01:29:51.164Z,101881.22
2022-08-19T01:32:32.389Z,101959.75
2022-08-19T01:35:00.727Z,101982.09
2022-08-19T01:37:27.393Z,101999.31
2022-08-19T01:39:53.953Z,101990.28
2022-08-19T01:42:20.435Z,101976.44
2022-08-19T01:44:56.835Z,101975.47
2022-08-19T01:47:23.281Z,101922.25
2022-08-19T01:49:49.740Z,101923.81
2022-08-19T01:52:16.196Z,101970.91
2022-08-19T01:54:42.659Z,101932.13
2022-08-19T01:57:13.433Z,101966.28
2022-08-19T01:59:42.033Z,101961.88
2022-08-19T02:02:08.570Z,101971.34
2022-08-19T02:04:36.052Z,101978.91
2022-08-19T02:07:02.561Z,101909.88
2022-08-19T02:09:29.109Z,101962.72
2022-08-19T02:11:55.628Z,101957.00
2022-08-19T02:14:22.065Z,101906.56
2022-08-19T02:16:48.551Z,101912.72
2022-08-19T02:19:15.009Z,101892.19
2022-08-19T02:21:41.519Z,101941.19
2022-08-19T02:24:08.020Z,101958.56
2022-08-19T02:26:34.649Z,101954.38
2022-08-19T02:29:01.173Z,101932.44
2022-08-19T02:31:28.526Z,101985.34
2022-08-19T02:33:56.754Z,101995.94
2022-08-19T02:36:25.417Z,101997.22
2022-08-19T02:38:54.357Z,101979.25
2022-08-19T02:41:26.941Z,102024.28
2022-08-19T02:44:26.362Z,102013.16
2022-08-19T02:46:41.468Z,101958.31
2022-08-19T02:49:09.055Z,102002.06
2022-08-19T02:51:41.038Z,101997.91
2022-08-19T02:54:09.434Z,101974.63
2022-08-19T02:56:38.693Z,101918.94
2022-08-19T02:59:06.462Z,101937.25
2022-08-19T03:01:33.521Z,101910.75
2022-08-19T03:04:05.763Z,101954.72
2022-08-19T03:06:33.076Z,101936.25
2022-08-19T03:08:59.588Z,101923.53
2022-08-19T03:11:27.384Z,101919.28
2022-08-19T03:13:54.771Z,101904.16
2022-08-19T03:16:24.951Z,101905.13
2022-08-19T03:18:53.063Z,101897.63
2022-08-19T03:21:25.902Z,101895.56
2022-08-19T03:23:57.103Z,101872.53
2022-08-19T03:26:23.588Z,101883.28
2022-08-19T03:28:51.620Z,101839.16
2022-08-19T03:31:43.552Z,101825.50
2022-08-19T03:34:15.374Z,101868.03
2022-08-19T03:36:42.164Z,101871.09
2022-08-19T03:39:08.621Z,101814.53
2022-08-19T03:41:44.851Z,101835.56
2022-08-19T03:44:19.480Z,101875.03
2022-08-19T03:46:52.461Z,101879.16
2022-08-19T03:49:20.461Z,101846.84
2022-08-19T03:51:48.641Z,101881.53
2022-08-19T03:54:17.293Z,101889.75
2022-08-19T03:56:45.426Z,101884.16
2022-08-19T03:59:15.345Z,101886.66
2022-08-19T04:01:42.138Z,101895.56
2022-08-19T04:04:09.439Z,101902.22
2022-08-19T04:06:39.844Z,101889.31
2022-08-19T04:09:09.693Z,101896.63
2022-08-19T04:11:43.960Z,101894.66
2022-08-19T04:14:14.187Z,101899.50
2022-08-19T04:16:40.656Z,101897.47
2022-08-19T04:19:07.973Z,101913.00
2022-08-19T04:21:34.978Z,101873.72
2022-08-19T04:24:01.642Z,101919.69
2022-08-19T04:26:33.652Z,101894.50
2022-08-19T04:29:11.693Z,101915.34
2022-08-19T04:31:39.006Z,101931.53
2022-08-19T04:34:08.904Z,101943.53
2022-08-19T04:36:37.609Z,101899.13
2022-08-19T04:39:10.444Z,101942.94
2022-08-19T04:41:37.624Z,101911.41
2022-08-19T04:44:05.272Z,101961.34
2022-08-19T04:46:39.173Z,101933.59
2022-08-19T04:49:13.017Z,101968.59
2022-08-19T04:51:42.831Z,101943.09
2022-08-19T04:54:09.869Z,102007.25
2022-08-19T04:56:36.535Z,102019.56
2022-08-19T04:59:03.049Z,102005.88
2022-08-19T05:01:30.636Z,101954.78
2022-08-19T05:03:58.380Z,101999.31
2022-08-19T05:06:24.981Z,102011.28
2022-08-19T05:08:51.438Z,101996.41
2022-08-19T05:11:26.316Z,102055.31
2022-08-19T05:13:53.471Z,102069.31
2022-08-19T05:16:22.190Z,102092.53
2022-08-19T05:18:49.316Z,102074.50
2022-08-19T05:21:18.040Z,102072.31
2022-08-19T05:23:44.571Z,102047.38
2022-08-19T05:26:11.040Z,102040.72
2022-08-19T05:28:37.510Z,102042.78
2022-08-19T05:31:03.985Z,102052.47
2022-08-19T05:33:31.039Z,102057.53
2022-08-19T05:35:57.456Z,102030.84
2022-08-19T05:38:23.943Z,102040.75
2022-08-19T05:40:50.453Z,102082.78
2022-08-19T05:43:16.994Z,102054.75
2022-08-19T05:45:44.194Z,102044.56
2022-08-19T05:48:12.281Z,101967.50
2022-08-19T05:50:43.002Z,102007.22
2022-08-19T05:53:09.785Z,101941.16
2022-08-19T05:55:36.603Z,101974.59
2022-08-19T05:58:03.140Z,101954.28
2022-08-19T06:00:29.658Z,101947.50
2022-08-19T06:02:56.376Z,101925.75
2022-08-19T06:05:23.060Z,101910.97
2022-08-19T06:07:49.611Z,101873.56
2022-08-19T06:10:16.302Z,101904.69
2022-08-19T06:12:42.760Z,101900.66
2022-08-19T06:15:12.363Z,101883.88
2022-08-19T06:17:39.819Z,101878.97
2022-08-19T06:20:09.847Z,101848.84
2022-08-19T06:22:47.031Z,101869.25
2022-08-19T06:25:15.533Z,101834.06
2022-08-19T06:28:11.465Z,101854.38
2022-08-19T06:30:29.088Z,101834.97
2022-08-19T06:32:55.546Z,101844.72
2022-08-19T06:35:22.132Z,101790.94
2022-08-19T06:37:48.697Z,101829.75
2022-08-19T06:40:15.677Z,101825.03
2022-08-19T06:42:54.073Z,101811.72
2022-08-19T06:45:25.002Z,101798.53
2022-08-19T06:47:52.548Z,101768.38
2022-08-19T06:50:20.370Z,101738.84
2022-08-19T06:52:46.821Z,101797.16
2022-08-19T06:55:13.279Z,101793.84
2022-08-19T06:57:39.765Z,101777.91
2022-08-19T07:00:09.724Z,101744.13
2022-08-19T07:02:38.807Z,101785.44
2022-08-19T07:05:06.705Z,101769.22
2022-08-19T07:07:33.319Z,101766.91
2022-08-19T07:10:02.753Z,101768.97
2022-08-19T07:12:32.648Z,101768.31
2022-08-19T07:14:59.534Z,101787.56
2022-08-19T07:17:26.399Z,101778.03
2022-08-19T07:19:54.538Z,101774.69
2022-08-19T07:22:22.592Z,101728.59
2022-08-19T07:24:51.723Z,101745.75
2022-08-19T07:27:18.806Z,101745.41
2022-08-19T07:29:57.159Z,101749.19
2022-08-19T07:32:26.215Z,101713.25
2022-08-19T07:34:52.721Z,101718.75
2022-08-19T07:37:19.244Z,101688.25
2022-08-19T07:39:45.762Z,101652.44
2022-08-19T07:42:13.168Z,101682.69
2022-08-19T07:47:07.522Z,101638.91
2022-08-19T07:49:53.981Z,101637.16
2022-08-19T07:52:20.522Z,101602.13
2022-08-19T07:54:46.970Z,101567.25
2022-08-19T07:57:13.427Z,101553.72
2022-08-19T07:59:40.057Z,101537.78
2022-08-19T08:02:06.894Z,101523.03
2022-08-19T08:04:33.470Z,101539.66
2022-08-19T08:07:00.145Z,101522.31
2022-08-19T08:09:30.931Z,101495.59
2022-08-19T08:12:05.145Z,101561.38
2022-08-19T08:14:51.009Z,101590.97
2022-08-19T08:17:48.872Z,101540.81
2022-08-19T08:20:14.252Z,101579.75
2022-08-19T08:22:44.723Z,101593.09
2022-08-19T08:25:17.715Z,101602.47
2022-08-19T08:27:46.232Z,101602.78
2022-08-19T08:30:17.879Z,101560.69
2022-08-19T08:32:45.306Z,101601.63
2022-08-19T08:35:15.934Z,101545.13
2022-08-19T08:37:42.395Z,101537.47
2022-08-19T08:40:44.103Z,101624.97
2022-08-19T08:43:32.345Z,101617.91
2022-08-19T08:46:06.726Z,101628.50
2022-08-19T08:48:37.106Z,101613.53
2022-08-19T08:51:09.989Z,101585.56
2022-08-19T08:53:41.419Z,101595.88
2022-08-19T08:56:11.515Z,101557.69
2022-08-19T08:59:05.331Z,101555.88
2022-08-19T09:01:31.809Z,101561.47
2022-08-19T09:04:02.809Z,101573.41
2022-08-19T09:07:03.828Z,101631.06
2022-08-19T09:09:50.380Z,101618.25
2022-08-19T09:12:29.135Z,101624.25
2022-08-19T09:15:07.234Z,101626.63
2022-08-19T09:17:33.779Z,101618.94
2022-08-19T09:20:22.249Z,101621.13
2022-08-19T09:22:48.980Z,101629.78
2022-08-19T09:25:26.685Z,101616.50
2022-08-19T09:27:55.531Z,101580.47
2022-08-19T09:30:32.213Z,101499.13
2022-08-19T09:33:00.290Z,101494.81
2022-08-19T09:35:29.350Z,101484.03
2022-08-19T09:37:59.436Z,101502.13
2022-08-19T09:40:30.026Z,101512.34
2022-08-19T09:42:58.182Z,101519.59
2022-08-19T09:45:24.879Z,101507.47
2022-08-19T09:47:54.355Z,101494.16
2022-08-19T09:50:22.736Z,101446.75
2022-08-19T09:52:54.072Z,101487.66
2022-08-19T09:55:24.834Z,101459.56
2022-08-19T09:57:59.062Z,101498.72
2022-08-19T10:00:25.561Z,101508.28
2022-08-19T10:02:53.266Z,101450.56
2022-08-19T10:05:23.203Z,101494.53
2022-08-19T10:07:53.565Z,101505.97
2022-08-19T10:10:20.176Z,101476.28
2022-08-19T10:12:46.669Z,101447.53
2022-08-19T10:15:15.461Z,101478.72
2022-08-19T10:17:48.005Z,101492.34
2022-08-19T10:20:21.435Z,101490.22
2022-08-19T10:22:47.946Z,101492.53
2022-08-19T10:25:18.443Z,101497.88
2022-08-19T10:27:47.908Z,101473.75
2022-08-19T10:30:18.126Z,101493.72
2022-08-19T10:32:46.786Z,101488.47
2022-08-19T10:35:14.228Z,101477.06
2022-08-19T10:37:56.794Z,101426.97
2022-08-19T10:40:24.235Z,101474.59
2022-08-19T10:42:50.786Z,101421.00
2022-08-19T10:45:17.298Z,101471.91
2022-08-19T10:47:43.766Z,101462.88
2022-08-19T10:50:11.944Z,101412.81
2022-08-19T10:52:39.511Z,101426.91
2022-08-19T10:55:15.874Z,101484.63
2022-08-19T11:00:28.864Z,101514.50
2022-08-19T11:02:55.427Z,101533.69
2022-08-19T11:05:21.911Z,101558.59
2022-08-19T11:07:51.421Z,101540.91
2022-08-19T11:10:21.404Z,101579.97
2022-08-19T11:12:48.617Z,101593.53
2022-08-19T11:15:15.120Z,101598.19
2022-08-19T11:17:42.193Z,101586.41
2022-08-19T11:20:09.350Z,101560.00
2022-08-19T11:22:40.549Z,101612.72
2022-08-19T11:25:10.284Z,101624.03
2022-08-19T11:27:42.956Z,101649.19
2022-08-19T11:30:13.002Z,101656.13
2022-08-19T11:32:43.441Z,101661.53
2022-08-19T11:35:12.313Z,101618.91
2022-08-19T11:37:38.858Z,101680.47
2022-08-19T11:40:07.088Z,101699.59
2022-08-19T11:42:33.660Z,101722.59
2022-08-19T11:45:00.104Z,101729.59
2022-08-19T11:47:26.602Z,101673.28
2022-08-19T11:49:53.105Z,101675.00
2022-08-19T11:52:19.576Z,101681.88
2022-08-19T11:54:46.018Z,101683.00
2022-08-19T11:57:12.568Z,101719.72
2022-08-19T11:59:39.033Z,101712.19
2022-08-19T12:02:05.491Z,101680.28
2022-08-19T12:04:31.941Z,101725.00
2022-08-19T12:06:58.379Z,101708.97
2022-08-19T12:09:24.824Z,101702.19
2022-08-19T12:11:51.974Z,101638.22
2022-08-19T12:14:18.667Z,101673.31
2022-08-19T12:16:51.463Z,101624.56
2022-08-19T12:19:22.098Z,101660.88
2022-08-19T12:21:50.211Z,101644.47
2022-08-19T12:24:16.759Z,101596.91
2022-08-19T12:26:52.748Z,101604.44
2022-08-19T12:29:23.665Z,101607.66
2022-08-19T12:31:50.915Z,101594.72
2022-08-19T12:34:17.327Z,101564.47
2022-08-19T12:36:43.808Z,101552.44
2022-08-19T12:39:10.666Z,101548.00
2022-08-19T12:41:38.297Z,101551.44
2022-08-19T12:44:18.245Z,101567.72
2022-08-19T12:46:47.380Z,101548.69
2022-08-19T12:49:52.172Z,101527.16
2022-08-19T12:52:07.768Z,101517.78
2022-08-19T12:54:35.538Z,101470.97
2022-08-19T12:57:06.131Z,101517.63
2022-08-19T12:59:32.633Z,101500.03
2022-08-19T13:01:59.134Z,101503.78
2022-08-19T13:04:25.638Z,101463.56
2022-08-19T13:06:52.098Z,101495.97
2022-08-19T13:09:18.538Z,101512.47
2022-08-19T13:11:45.004Z,101485.94
2022-08-19T13:14:11.457Z,101480.13
2022-08-19T13:16:38.245Z,101486.56
2022-08-19T13:19:05.200Z,101496.66
2022-08-19T13:21:32.202Z,101458.63
2022-08-19T13:23:58.796Z,101438.94
2022-08-19T13:26:25.284Z,101377.53
2022-08-19T13:28:51.796Z,101425.09
2022-08-19T13:31:24.362Z,101393.94
2022-08-19T13:33:50.843Z,101428.25
2022-08-19T13:36:17.264Z,101428.53
2022-08-19T13:38:43.959Z,101392.44
2022-08-19T13:41:14.427Z,101440.09
2022-08-19T13:43:41.444Z,101409.31
2022-08-19T13:46:12.444Z,101442.22
2022-08-19T13:48:38.883Z,101447.63
2022-08-19T13:51:06.353Z,101401.13
2022-08-19T13:53:32.905Z,101451.31
2022-08-19T13:55:59.342Z,101444.09
2022-08-19T13:58:25.836Z,101484.09
2022-08-19T14:00:52.403Z,101496.63
2022-08-19T14:03:19.042Z,101535.69
2022-08-19T14:05:45.544Z,101566.50
2022-08-19T14:08:12.140Z,101590.97
2022-08-19T14:10:38.679Z,101598.41
2022-08-19T14:13:05.508Z,101589.38
2022-08-19T14:15:32.682Z,101634.16
2022-08-19T14:17:59.167Z,101629.72
2022-08-19T14:20:26.128Z,101602.31
2022-08-19T14:22:54.086Z,101623.09
2022-08-19T14:25:26.774Z,101610.84
2022-08-19T14:27:53.575Z,101612.16
2022-08-19T14:30:26.481Z,101605.53
2022-08-19T14:32:53.250Z,101604.47
2022-08-19T14:35:19.727Z,101593.00
2022-08-19T14:37:46.569Z,101592.72
2022-08-19T14:40:18.212Z,101533.09
2022-08-19T14:45:12.602Z,101570.88
2022-08-19T14:47:40.902Z,101541.06
2022-08-19T14:50:10.451Z,101540.56
2022-08-19T14:52:38.310Z,101542.94
2022-08-19T14:55:07.707Z,101534.69
2022-08-19T14:57:34.314Z,101522.97
2022-08-19T15:00:00.993Z,101512.34
2022-08-19T15:02:34.568Z,101448.72
2022-08-19T15:05:01.626Z,101465.78
2022-08-19T15:07:28.977Z,101506.75
2022-08-19T15:09:56.579Z,101484.91
2022-08-19T15:12:23.113Z,101501.94
2022-08-19T15:14:49.565Z,101503.25
2022-08-19T15:17:18.774Z,101504.34
2022-08-19T15:19:45.702Z,101463.91
2022-08-19T15:22:12.630Z,101480.59
2022-08-19T15:24:47.799Z,101490.75
2022-08-19T15:27:14.773Z,101518.72
2022-08-19T15:29:41.408Z,101533.09
2022-08-19T15:32:08.934Z,101537.09
2022-08-19T15:34:35.857Z,101484.09
2022-08-19T15:37:02.725Z,101549.34
2022-08-19T15:39:29.208Z,101553.59
2022-08-19T15:41:55.759Z,101576.19
2022-08-19T15:44:22.212Z,101590.00
2022-08-19T15:46:49.372Z,101580.09
2022-08-19T15:49:18.582Z,101610.44
2022-08-19T15:51:47.857Z,101619.94
2022-08-19T15:54:19.360Z,101581.28
2022-08-19T15:56:45.786Z,101610.56
2022-08-19T15:59:24.567Z,101670.31
2022-08-19T16:01:51.092Z,101671.31
2022-08-19T16:04:17.568Z,101671.50
2022-08-19T16:06:54.432Z,101678.94
2022-08-19T16:09:27.245Z,101632.72
2022-08-19T16:12:01.815Z,101670.19
2022-08-19T16:14:31.717Z,101615.84
2022-08-19T16:16:58.269Z,101613.50
2022-08-19T16:19:25.447Z,101598.34
2022-08-19T16:21:54.115Z,101657.59
2022-08-19T16:24:23.246Z,101667.16
2022-08-19T16:26:50.200Z,101660.41
2022-08-19T16:29:33.942Z,101656.09
2022-08-19T16:32:02.820Z,101661.22
2022-08-19T16:34:30.748Z,101674.13
2022-08-19T16:36:57.501Z,101621.94
2022-08-19T16:39:24.060Z,101658.75
2022-08-19T16:41:50.730Z,101670.75
2022-08-19T16:44:17.228Z,101667.56
2022-08-19T16:46:43.704Z,101677.72
2022-08-19T16:49:11.077Z,101673.75
2022-08-19T16:51:39.201Z,101630.59
2022-08-19T16:54:06.416Z,101663.34
2022-08-19T16:56:33.340Z,101659.00
2022-08-19T16:58:59.813Z,101653.69
2022-08-19T17:01:27.323Z,101656.38
2022-08-19T17:03:54.569Z,101640.47
2022-08-19T17:06:24.277Z,101590.66
2022-08-19T17:08:52.911Z,101602.97
2022-08-19T17:11:21.216Z,101611.47
2022-08-19T17:13:49.207Z,101580.06
2022-08-19T17:16:20.830Z,101617.94
2022-08-19T17:18:48.014Z,101562.25
2022-08-19T17:21:14.486Z,101609.13
2022-08-19T17:23:43.617Z,101615.50
2022-08-19T17:26:18.109Z,101606.75
2022-08-19T17:28:47.499Z,101598.22
2022-08-19T17:31:13.965Z,101594.25
2022-08-19T17:33:41.136Z,101542.25
2022-08-19T17:36:09.363Z,101559.88
2022-08-19T17:38:36.401Z,101549.38
2022-08-19T17:41:03.204Z,101590.94
2022-08-19T17:43:32.892Z,101543.31
2022-08-19T17:46:02.321Z,101590.41
2022-08-19T17:48:34.123Z,101589.91
2022-08-19T17:51:00.576Z,101599.78
2022-08-19T17:53:27.089Z,101604.56
2022-08-19T17:55:53.575Z,101606.16
2022-08-19T17:58:19.980Z,101606.88
2022-08-19T18:00:52.737Z,101552.06
2022-08-19T18:03:20.122Z,101562.53
2022-08-19T18:05:46.564Z,101601.28
2022-08-19T18:08:13.078Z,101556.50
2022-08-19T18:10:39.596Z,101555.59
2022-08-19T18:13:10.069Z,101613.50
2022-08-19T18:15:44.449Z,101620.38
2022-08-19T18:18:15.125Z,101622.50
2022-08-19T18:20:42.936Z,101617.63
2022-08-19T18:23:45.370Z,101625.06
2022-08-19T18:25:56.006Z,101635.31
2022-08-19T18:28:22.566Z,101592.31
2022-08-19T18:30:49.094Z,101640.13
2022-08-19T18:33:15.614Z,101658.09
2022-08-19T18:35:47.841Z,101676.53
2022-08-19T18:38:16.597Z,101680.03
2022-08-19T18:40:43.084Z,101674.19
2022-08-19T18:43:10.536Z,101679.91
2022-08-19T18:45:38.617Z,101695.66
2022-08-19T18:48:08.509Z,101697.78
2022-08-19T18:50:53.625Z,101688.91
2022-08-19T18:53:20.052Z,101684.91
2022-08-19T18:55:46.578Z,101664.94
2022-08-19T18:58:13.078Z,101628.63
2022-08-19T19:00:39.597Z,101637.09
2022-08-19T19:03:06.053Z,101682.97
2022-08-19T19:05:32.531Z,101687.09
2022-08-19T19:07:59.064Z,101627.25
2022-08-19T19:10:25.506Z,101697.00
2022-08-19T19:12:51.957Z,101690.56
2022-08-19T19:15:18.448Z,101688.81
2022-08-19T19:17:44.912Z,101688.16
2022-08-19T19:20:11.537Z,101700.28
2022-08-19T19:22:38.078Z,101702.34
2022-08-19T19:25:04.965Z,101706.59
2022-08-19T19:27:31.405Z,101708.81
2022-08-19T19:29:57.891Z,101714.53
2022-08-19T19:32:26.986Z,101740.09
2022-08-19T19:34:53.910Z,101748.28
2022-08-19T19:37:20.418Z,101760.88
2022-08-19T19:39:47.286Z,101774.25
2022-08-19T19:42:20.402Z,101773.53
2022-08-19T19:44:48.203Z,101824.63
2022-08-19T19:47:15.440Z,101994.50
2022-08-19T19:50:03.821Z,102048.31
2022-08-19T19:52:28.481Z,102080.13
2022-08-19T19:54:54.978Z,102101.91
2022-08-19T19:57:21.417Z,102130.47
2022-08-19T19:59:51.423Z,102153.41
2022-08-19T20:02:18.221Z,102142.91
2022-08-19T20:04:44.692Z,102192.78
2022-08-19T20:07:11.156Z,102252.31
2022-08-19T20:09:58.273Z,102247.34
2022-08-19T20:12:23.991Z,102247.00
2022-08-19T20:14:50.431Z,102257.84
2022-08-19T20:17:16.934Z,102220.81
2022-08-19T20:19:43.383Z,102265.44
2022-08-19T20:22:09.817Z,102232.31
2022-08-19T20:24:37.451Z,102276.03
2022-08-19T20:27:04.905Z,102270.25
2022-08-19T20:29:39.598Z,102274.06
2022-08-19T20:32:07.683Z,102279.81
2022-08-19T20:34:34.178Z,102288.59
2022-08-19T20:37:00.716Z,102281.22
2022-08-19T20:39:27.132Z,102253.69
2022-08-19T20:41:53.590Z,102200.44
2022-08-19T20:44:20.080Z,102226.94
2022-08-19T20:46:55.610Z,102204.50
2022-08-19T20:49:27.029Z,102199.41
2022-08-19T20:51:55.096Z,102145.91
2022-08-19T20:54:21.776Z,102189.00
2022-08-19T20:56:48.249Z,102192.34
2022-08-19T20:59:14.827Z,102193.13
2022-08-19T21:01:41.320Z,102196.06
2022-08-19T21:04:07.752Z,102200.88
2022-08-19T21:06:34.192Z,102194.34
2022-08-19T21:09:00.844Z,102210.91
2022-08-19T21:11:27.281Z,102225.22
2022-08-19T21:13:53.738Z,102181.41
2022-08-19T21:16:20.249Z,102213.44
2022-08-19T21:18:46.808Z,102227.81
2022-08-19T21:21:13.271Z,102179.78
2022-08-19T21:23:39.724Z,102242.94
2022-08-19T21:26:06.162Z,102220.75
2022-08-19T21:28:36.205Z,102303.25
2022-08-19T21:31:05.188Z,102297.53
2022-08-19T21:33:32.008Z,102352.84
2022-08-19T21:35:59.568Z,102508.72
2022-08-19T21:38:26.132Z,102617.06
2022-08-19T21:40:52.650Z,102856.72
2022-08-19T21:43:19.160Z,102979.03
2022-08-19T21:45:46.821Z,103170.03
2022-08-19T21:48:14.046Z,103217.72
2022-08-19T21:50:42.391Z,103308.44
2022-08-19T21:53:11.326Z,103478.06
2022-08-19T21:55:42.166Z,103505.56
2022-08-19T21:58:09.758Z,103604.72
2022-08-19T22:00:36.232Z,103683.13
2022-08-19T22:03:02.967Z,103689.66
2022-08-19T22:05:29.782Z,103744.22
2022-08-19T22:07:58.088Z,103834.22
2022-08-19T22:10:30.199Z,103992.84
2022-08-19T22:12:57.022Z,104044.22
2022-08-19T22:15:26.170Z,104049.06
2022-08-19T22:17:53.207Z,104090.94
2022-08-19T22:20:23.441Z,104148.00
2022-08-19T22:22:56.571Z,104180.84
2022-08-19T22:25:31.693Z,104184.69
2022-08-19T22:28:01.782Z,104223.03
2022-08-19T22:30:33.539Z,104330.44
2022-08-19T22:33:04.253Z,104337.44
2022-08-19T22:35:33.785Z,104339.47
2022-08-19T22:38:01.944Z,104466.06
2022-08-19T22:40:30.201Z,104424.94
2022-08-19T22:43:02.378Z,104506.81
2022-08-19T22:45:30.235Z,104474.88
2022-08-19T22:47:57.239Z,104434.34
2022-08-19T22:50:24.140Z,104454.22
2022-08-19T22:52:58.933Z,104535.94
2022-08-19T22:55:26.677Z,104631.09
2022-08-19T22:57:54.313Z,104576.75
2022-08-19T23:00:23.878Z,104658.84
2022-08-19T23:02:52.326Z,104738.97
2022-08-19T23:05:24.507Z,104717.81
2022-08-19T23:07:52.640Z,104720.00
2022-08-19T23:10:27.582Z,104739.34
2022-08-19T23:12:58.702Z,104790.13
2022-08-19T23:15:31.109Z,104748.59
2022-08-19T23:18:00.916Z,104840.91
2022-08-19T23:20:30.881Z,104849.78
2022-08-19T23:22:58.362Z,104814.38
2022-08-19T23:25:30.652Z,104797.59
2022-08-19T23:27:57.628Z,104871.47
2022-08-19T23:30:24.276Z,104909.31
2022-08-19T23:32:50.698Z,104855.44
2022-08-19T23:35:17.144Z,104944.94
2022-08-19T23:37:43.665Z,104901.50
2022-08-19T23:40:10.405Z,104964.66
2022-08-19T23:42:41.423Z,104957.84
2022-08-19T23:45:08.543Z,104695.59
2022-08-19T23:47:35.996Z,104665.69
2022-08-19T23:50:08.273Z,105007.09
2022-08-19T23:52:44.343Z,104934.78
2022-08-19T23:55:11.689Z,105059.38
2022-08-19T23:57:38.145Z,105062.69
